sensor_id;sensor_type;location;lat;lon;timestamp;temperature;humidity
27162;DHT22;54464;50.558;9.704;2023-01-01T00:00:47;13.70;99.90
27162;DHT22;54464;50.558;9.704;2023-01-01T00:03:13;13.70;99.90
27162;DHT22;54464;50.558;9.704;2023-01-01T00:05:39;13.80;99.90
27162;DHT22;54464;50.558;9.704;2023-01-01T00:08:05;13.70;99.90
27162;DHT22;54464;50.558;9.704;2023-01-01T00:10:31;13.70;99.90
27162;DHT22;54464;50.558;9.704;2023-01-01T00:12:58;13.70;99.90
27162;DHT22;54464;50.558;9.704;2023-01-01T00:15:25;13.70;99.90
27162;DHT22;54464;50.558;9.704;2023-01-01T00:17:52;13.70;99.90
27162;DHT22;54464;50.558;9.704;2023-01-01T00:20:18;13.70;99.90
27162;DHT22;54464;50.558;9.704;2023-01-01T00:22:44;13.60;99.90
27162;DHT22;54464;50.558;9.704;2023-01-01T00:25:11;13.60;99.90
27162;DHT22;54464;50.558;9.704;2023-01-01T00:27:40;13.70;99.90
27162;DHT22;54464;50.558;9.704;2023-01-01T00:30:07;13.70;99.90
27162;DHT22;54464;50.558;9.704;2023-01-01T00:32:34;13.60;99.90
27162;DHT22;54464;50.558;9.704;2023-01-01T00:34:59;13.70;99.90
27162;DHT22;54464;50.558;9.704;2023-01-01T00:37:27;13.60;99.90
27162;DHT22;54464;50.558;9.704;2023-01-01T00:39:53;13.60;99.90
27162;DHT22;54464;50.558;9.704;2023-01-01T00:42:18;13.60;99.90
27162;DHT22;54464;50.558;9.704;2023-01-01T00:44:44;13.60;99.90
27162;DHT22;54464;50.558;9.704;2023-01-01T00:47:10;13.70;99.90
27162;DHT22;54464;50.558;9.704;2023-01-01T00:49:35;13.60;99.90
27162;DHT22;54464;50.558;9.704;2023-01-01T00:52:01;13.50;99.90
27162;DHT22;54464;50.558;9.704;2023-01-01T00:54:26;13.50;99.90
27162;DHT22;54464;50.558;9.704;2023-01-01T00:56:52;13.40;99.90
27162;DHT22;54464;50.558;9.704;2023-01-01T00:59:18;13.40;99.90
27162;DHT22;54464;50.558;9.704;2023-01-01T01:01:43;13.40;99.90
27162;DHT22;54464;50.558;9.704;2023-01-01T01:04:09;13.30;99.90
27162;DHT22;54464;50.558;9.704;2023-01-01T01:06:35;13.30;99.90
27162;DHT22;54464;50.558;9.704;2023-01-01T01:09:01;13.20;99.90
27162;DHT22;54464;50.558;9.704;2023-01-01T01:11:26;13.30;99.90
27162;DHT22;54464;50.558;9.704;2023-01-01T01:13:54;13.30;99.90
27162;DHT22;54464;50.558;9.704;2023-01-01T01:16:24;13.30;99.90
27162;DHT22;54464;50.558;9.704;2023-01-01T01:18:52;13.30;99.90
27162;DHT22;54464;50.558;9.704;2023-01-01T01:21:19;13.30;99.90
27162;DHT22;54464;50.558;9.704;2023-01-01T01:23:46;13.30;99.90
27162;DHT22;54464;50.558;9.704;2023-01-01T01:26:13;13.20;99.90
27162;DHT22;54464;50.558;9.704;2023-01-01T01:28:40;13.20;99.90
27162;DHT22;54464;50.558;9.704;2023-01-01T01:31:06;13.20;99.90
27162;DHT22;54464;50.558;9.704;2023-01-01T01:33:32;13.20;99.90
27162;DHT22;54464;50.558;9.704;2023-01-01T01:35:58;13.20;99.90
27162;DHT22;54464;50.558;9.704;2023-01-01T01:38:24;13.20;99.90
27162;DHT22;54464;50.558;9.704;2023-01-01T01:40:49;13.20;99.90
27162;DHT22;54464;50.558;9.704;2023-01-01T01:48:25;13.20;99.90
27162;DHT22;54464;50.558;9.704;2023-01-01T01:50:52;13.20;99.90
27162;DHT22;54464;50.558;9.704;2023-01-01T01:53:27;13.20;99.90
27162;DHT22;54464;50.558;9.704;2023-01-01T01:55:57;13.20;99.90
27162;DHT22;54464;50.558;9.704;2023-01-01T01:58:24;13.20;99.90
27162;DHT22;54464;50.558;9.704;2023-01-01T02:00:51;13.10;99.90
27162;DHT22;54464;50.558;9.704;2023-01-01T02:03:28;13.10;99.90
27162;DHT22;54464;50.558;9.704;2023-01-01T02:05:56;13.10;99.90
27162;DHT22;54464;50.558;9.704;2023-01-01T02:08:23;13.10;99.90
27162;DHT22;54464;50.558;9.704;2023-01-01T02:10:48;13.10;99.90
27162;DHT22;54464;50.558;9.704;2023-01-01T02:13:14;13.00;99.90
27162;DHT22;54464;50.558;9.704;2023-01-01T02:18:24;12.90;99.90
27162;DHT22;54464;50.558;9.704;2023-01-01T02:20:59;12.90;99.90
27162;DHT22;54464;50.558;9.704;2023-01-01T02:31:31;12.80;99.90
27162;DHT22;54464;50.558;9.704;2023-01-01T02:34:00;12.80;99.90
27162;DHT22;54464;50.558;9.704;2023-01-01T02:36:30;12.70;99.90
27162;DHT22;54464;50.558;9.704;2023-01-01T02:39:00;12.70;99.90
27162;DHT22;54464;50.558;9.704;2023-01-01T02:41:38;12.80;99.90
27162;DHT22;54464;50.558;9.704;2023-01-01T02:44:05;12.80;99.90
27162;DHT22;54464;50.558;9.704;2023-01-01T02:46:32;12.80;99.90
27162;DHT22;54464;50.558;9.704;2023-01-01T02:48:59;12.80;99.90
27162;DHT22;54464;50.558;9.704;2023-01-01T02:51:28;12.80;99.90
27162;DHT22;54464;50.558;9.704;2023-01-01T02:54:21;12.70;99.90
27162;DHT22;54464;50.558;9.704;2023-01-01T02:57:05;12.70;99.90
27162;DHT22;54464;50.558;9.704;2023-01-01T02:59:44;12.70;99.90
27162;DHT22;54464;50.558;9.704;2023-01-01T03:02:42;12.70;99.90
27162;DHT22;54464;50.558;9.704;2023-01-01T03:05:40;12.70;99.90
27162;DHT22;54464;50.558;9.704;2023-01-01T03:08:32;12.80;99.90
27162;DHT22;54464;50.558;9.704;2023-01-01T03:11:08;12.70;99.90
27162;DHT22;54464;50.558;9.704;2023-01-01T03:16:23;12.70;99.90
27162;DHT22;54464;50.558;9.704;2023-01-01T03:19:06;12.70;99.90
27162;DHT22;54464;50.558;9.704;2023-01-01T03:21:58;12.70;99.90
27162;DHT22;54464;50.558;9.704;2023-01-01T03:24:40;12.70;99.90
27162;DHT22;54464;50.558;9.704;2023-01-01T03:27:22;12.80;99.90
27162;DHT22;54464;50.558;9.704;2023-01-01T03:32:33;12.80;99.90
27162;DHT22;54464;50.558;9.704;2023-01-01T03:35:19;12.90;99.90
27162;DHT22;54464;50.558;9.704;2023-01-01T03:37:48;12.90;99.90
27162;DHT22;54464;50.558;9.704;2023-01-01T03:40:17;13.00;99.90
27162;DHT22;54464;50.558;9.704;2023-01-01T03:42:49;13.00;99.90
27162;DHT22;54464;50.558;9.704;2023-01-01T03:45:19;13.00;99.90
27162;DHT22;54464;50.558;9.704;2023-01-01T03:47:47;13.00;99.90
27162;DHT22;54464;50.558;9.704;2023-01-01T03:50:13;13.00;99.90
27162;DHT22;54464;50.558;9.704;2023-01-01T03:52:55;13.00;99.90
27162;DHT22;54464;50.558;9.704;2023-01-01T03:58:18;13.00;99.90
27162;DHT22;54464;50.558;9.704;2023-01-01T04:01:13;13.00;99.90
27162;DHT22;54464;50.558;9.704;2023-01-01T04:03:40;13.00;99.90
27162;DHT22;54464;50.558;9.704;2023-01-01T04:06:08;13.00;99.90
27162;DHT22;54464;50.558;9.704;2023-01-01T04:08:34;13.00;99.90
27162;DHT22;54464;50.558;9.704;2023-01-01T04:11:03;12.90;99.90
27162;DHT22;54464;50.558;9.704;2023-01-01T04:13:50;12.90;99.90
27162;DHT22;54464;50.558;9.704;2023-01-01T04:16:15;12.90;99.90
27162;DHT22;54464;50.558;9.704;2023-01-01T04:18:41;12.90;99.90
27162;DHT22;54464;50.558;9.704;2023-01-01T04:21:07;13.00;99.90
27162;DHT22;54464;50.558;9.704;2023-01-01T04:23:32;13.00;99.90
27162;DHT22;54464;50.558;9.704;2023-01-01T04:25:58;13.00;99.90
27162;DHT22;54464;50.558;9.704;2023-01-01T04:28:23;13.00;99.90
27162;DHT22;54464;50.558;9.704;2023-01-01T04:30:49;13.00;99.90
27162;DHT22;54464;50.558;9.704;2023-01-01T04:33:15;13.00;99.90
27162;DHT22;54464;50.558;9.704;2023-01-01T04:35:40;13.00;99.90
27162;DHT22;54464;50.558;9.704;2023-01-01T04:38:06;13.00;99.90
27162;DHT22;54464;50.558;9.704;2023-01-01T04:40:31;13.00;99.90
27162;DHT22;54464;50.558;9.704;2023-01-01T04:42:57;13.00;99.90
27162;DHT22;54464;50.558;9.704;2023-01-01T04:45:23;13.00;99.90
27162;DHT22;54464;50.558;9.704;2023-01-01T04:47:48;13.00;99.90
27162;DHT22;54464;50.558;9.704;2023-01-01T04:50:14;12.90;99.90
27162;DHT22;54464;50.558;9.704;2023-01-01T04:52:39;13.00;99.90
27162;DHT22;54464;50.558;9.704;2023-01-01T04:55:05;12.90;99.90
27162;DHT22;54464;50.558;9.704;2023-01-01T04:57:31;13.00;99.90
27162;DHT22;54464;50.558;9.704;2023-01-01T04:59:57;12.90;99.90
27162;DHT22;54464;50.558;9.704;2023-01-01T05:02:23;12.90;99.90
27162;DHT22;54464;50.558;9.704;2023-01-01T05:04:48;13.00;99.90
27162;DHT22;54464;50.558;9.704;2023-01-01T05:07:14;12.90;99.90
27162;DHT22;54464;50.558;9.704;2023-01-01T05:09:39;12.90;99.90
27162;DHT22;54464;50.558;9.704;2023-01-01T05:12:05;12.90;99.90
27162;DHT22;54464;50.558;9.704;2023-01-01T05:14:31;12.90;99.90
27162;DHT22;54464;50.558;9.704;2023-01-01T05:16:57;12.90;99.90
27162;DHT22;54464;50.558;9.704;2023-01-01T05:19:23;12.80;99.90
27162;DHT22;54464;50.558;9.704;2023-01-01T05:21:48;12.90;99.90
27162;DHT22;54464;50.558;9.704;2023-01-01T05:24:14;12.90;99.90
27162;DHT22;54464;50.558;9.704;2023-01-01T05:26:42;12.90;99.90
27162;DHT22;54464;50.558;9.704;2023-01-01T05:29:08;12.80;99.90
27162;DHT22;54464;50.558;9.704;2023-01-01T05:31:34;12.80;99.90
27162;DHT22;54464;50.558;9.704;2023-01-01T05:34:02;12.80;99.90
27162;DHT22;54464;50.558;9.704;2023-01-01T05:36:34;12.80;99.90
27162;DHT22;54464;50.558;9.704;2023-01-01T05:39:04;12.80;99.90
27162;DHT22;54464;50.558;9.704;2023-01-01T05:41:30;12.70;99.90
27162;DHT22;54464;50.558;9.704;2023-01-01T05:43:56;12.70;99.90
27162;DHT22;54464;50.558;9.704;2023-01-01T05:46:23;12.70;99.90
27162;DHT22;54464;50.558;9.704;2023-01-01T05:48:50;12.60;99.90
27162;DHT22;54464;50.558;9.704;2023-01-01T05:51:22;12.70;99.90
27162;DHT22;54464;50.558;9.704;2023-01-01T05:53:48;12.70;99.90
27162;DHT22;54464;50.558;9.704;2023-01-01T05:56:15;12.70;99.90
27162;DHT22;54464;50.558;9.704;2023-01-01T05:58:42;12.80;99.90
27162;DHT22;54464;50.558;9.704;2023-01-01T06:03:41;12.80;99.90
27162;DHT22;54464;50.558;9.704;2023-01-01T06:06:18;12.90;99.90
27162;DHT22;54464;50.558;9.704;2023-01-01T06:08:58;12.90;99.90
27162;DHT22;54464;50.558;9.704;2023-01-01T06:11:25;12.80;99.90
27162;DHT22;54464;50.558;9.704;2023-01-01T06:13:55;12.80;99.90
27162;DHT22;54464;50.558;9.704;2023-01-01T06:16:21;12.80;99.90
27162;DHT22;54464;50.558;9.704;2023-01-01T06:18:47;12.90;99.90
27162;DHT22;54464;50.558;9.704;2023-01-01T06:21:15;12.90;99.90
27162;DHT22;54464;50.558;9.704;2023-01-01T06:23:41;12.90;99.90
27162;DHT22;54464;50.558;9.704;2023-01-01T06:28:37;12.90;99.90
27162;DHT22;54464;50.558;9.704;2023-01-01T06:31:05;12.90;99.90
27162;DHT22;54464;50.558;9.704;2023-01-01T06:33:32;12.90;99.90
27162;DHT22;54464;50.558;9.704;2023-01-01T06:36:00;12.90;99.90
27162;DHT22;54464;50.558;9.704;2023-01-01T06:38:26;12.90;99.90
27162;DHT22;54464;50.558;9.704;2023-01-01T06:41:03;12.80;99.90
27162;DHT22;54464;50.558;9.704;2023-01-01T06:43:30;12.90;99.90
27162;DHT22;54464;50.558;9.704;2023-01-01T06:46:11;12.80;99.90
27162;DHT22;54464;50.558;9.704;2023-01-01T06:48:38;12.90;99.90
27162;DHT22;54464;50.558;9.704;2023-01-01T06:51:09;12.90;99.90
27162;DHT22;54464;50.558;9.704;2023-01-01T06:53:35;12.80;99.90
27162;DHT22;54464;50.558;9.704;2023-01-01T06:56:01;12.80;99.90
27162;DHT22;54464;50.558;9.704;2023-01-01T06:58:26;12.70;99.90
27162;DHT22;54464;50.558;9.704;2023-01-01T07:00:52;12.80;99.90
27162;DHT22;54464;50.558;9.704;2023-01-01T07:03:18;12.70;99.90
27162;DHT22;54464;50.558;9.704;2023-01-01T07:05:43;12.70;99.90
27162;DHT22;54464;50.558;9.704;2023-01-01T07:08:09;12.60;99.90
27162;DHT22;54464;50.558;9.704;2023-01-01T07:10:34;12.60;99.90
27162;DHT22;54464;50.558;9.704;2023-01-01T07:13:00;12.60;99.90
27162;DHT22;54464;50.558;9.704;2023-01-01T07:15:26;12.60;99.90
27162;DHT22;54464;50.558;9.704;2023-01-01T07:17:52;12.60;99.90
27162;DHT22;54464;50.558;9.704;2023-01-01T07:20:18;12.70;99.90
27162;DHT22;54464;50.558;9.704;2023-01-01T07:22:43;12.70;99.90
27162;DHT22;54464;50.558;9.704;2023-01-01T07:25:13;12.60;99.90
27162;DHT22;54464;50.558;9.704;2023-01-01T07:27:39;12.70;99.90
27162;DHT22;54464;50.558;9.704;2023-01-01T07:30:05;12.70;99.90
27162;DHT22;54464;50.558;9.704;2023-01-01T07:32:31;12.70;99.90
27162;DHT22;54464;50.558;9.704;2023-01-01T07:34:56;12.70;99.90
27162;DHT22;54464;50.558;9.704;2023-01-01T07:37:22;12.70;99.90
27162;DHT22;54464;50.558;9.704;2023-01-01T07:39:50;12.80;99.90
27162;DHT22;54464;50.558;9.704;2023-01-01T07:42:16;12.80;99.90
27162;DHT22;54464;50.558;9.704;2023-01-01T07:44:42;12.90;99.90
27162;DHT22;54464;50.558;9.704;2023-01-01T07:47:23;12.90;99.90
27162;DHT22;54464;50.558;9.704;2023-01-01T07:49:53;12.80;99.90
27162;DHT22;54464;50.558;9.704;2023-01-01T07:52:18;12.80;99.90
27162;DHT22;54464;50.558;9.704;2023-01-01T07:54:44;13.00;99.90
27162;DHT22;54464;50.558;9.704;2023-01-01T07:57:10;12.90;99.90
27162;DHT22;54464;50.558;9.704;2023-01-01T07:59:36;13.00;99.90
27162;DHT22;54464;50.558;9.704;2023-01-01T08:02:02;13.00;99.90
27162;DHT22;54464;50.558;9.704;2023-01-01T08:04:27;12.90;99.90
27162;DHT22;54464;50.558;9.704;2023-01-01T08:06:53;12.90;99.90
27162;DHT22;54464;50.558;9.704;2023-01-01T08:09:19;12.90;99.90
27162;DHT22;54464;50.558;9.704;2023-01-01T08:11:44;12.90;99.90
27162;DHT22;54464;50.558;9.704;2023-01-01T08:14:12;12.90;99.90
27162;DHT22;54464;50.558;9.704;2023-01-01T08:16:38;12.90;99.90
27162;DHT22;54464;50.558;9.704;2023-01-01T08:19:04;12.90;99.90
27162;DHT22;54464;50.558;9.704;2023-01-01T08:21:30;12.90;99.90
27162;DHT22;54464;50.558;9.704;2023-01-01T08:23:56;12.90;99.90
27162;DHT22;54464;50.558;9.704;2023-01-01T08:26:29;12.90;99.90
27162;DHT22;54464;50.558;9.704;2023-01-01T08:28:56;12.90;99.90
27162;DHT22;54464;50.558;9.704;2023-01-01T08:31:23;13.00;99.90
27162;DHT22;54464;50.558;9.704;2023-01-01T08:33:48;13.00;99.90
27162;DHT22;54464;50.558;9.704;2023-01-01T08:36:14;13.00;99.90
27162;DHT22;54464;50.558;9.704;2023-01-01T08:38:41;13.00;99.90
27162;DHT22;54464;50.558;9.704;2023-01-01T08:41:07;13.00;99.90
27162;DHT22;54464;50.558;9.704;2023-01-01T08:43:33;12.90;99.90
27162;DHT22;54464;50.558;9.704;2023-01-01T08:45:59;12.90;99.90
27162;DHT22;54464;50.558;9.704;2023-01-01T08:48:24;13.00;99.90
27162;DHT22;54464;50.558;9.704;2023-01-01T08:50:58;12.90;99.90
27162;DHT22;54464;50.558;9.704;2023-01-01T08:53:30;12.90;99.90
27162;DHT22;54464;50.558;9.704;2023-01-01T08:56:02;12.90;99.90
27162;DHT22;54464;50.558;9.704;2023-01-01T08:58:29;12.90;99.90
27162;DHT22;54464;50.558;9.704;2023-01-01T09:00:55;12.90;99.90
27162;DHT22;54464;50.558;9.704;2023-01-01T09:03:21;12.90;99.90
27162;DHT22;54464;50.558;9.704;2023-01-01T09:05:47;13.00;99.90
27162;DHT22;54464;50.558;9.704;2023-01-01T09:08:13;13.10;99.90
27162;DHT22;54464;50.558;9.704;2023-01-01T09:10:39;13.10;99.90
27162;DHT22;54464;50.558;9.704;2023-01-01T09:13:04;13.10;99.90
27162;DHT22;54464;50.558;9.704;2023-01-01T09:15:30;13.20;99.90
27162;DHT22;54464;50.558;9.704;2023-01-01T09:17:56;13.30;99.90
27162;DHT22;54464;50.558;9.704;2023-01-01T09:20:21;13.40;99.90
27162;DHT22;54464;50.558;9.704;2023-01-01T09:22:47;13.40;99.90
27162;DHT22;54464;50.558;9.704;2023-01-01T09:25:13;13.40;99.90
27162;DHT22;54464;50.558;9.704;2023-01-01T09:27:39;13.30;99.90
27162;DHT22;54464;50.558;9.704;2023-01-01T09:32:40;13.30;99.90
27162;DHT22;54464;50.558;9.704;2023-01-01T09:35:06;13.30;99.90
27162;DHT22;54464;50.558;9.704;2023-01-01T09:37:31;13.30;99.90
27162;DHT22;54464;50.558;9.704;2023-01-01T09:39:58;13.30;99.90
27162;DHT22;54464;50.558;9.704;2023-01-01T09:42:44;13.40;99.90
27162;DHT22;54464;50.558;9.704;2023-01-01T09:45:30;13.40;99.90
27162;DHT22;54464;50.558;9.704;2023-01-01T09:48:10;13.40;99.90
27162;DHT22;54464;50.558;9.704;2023-01-01T09:50:40;13.40;99.90
27162;DHT22;54464;50.558;9.704;2023-01-01T09:55:52;13.30;99.90
27162;DHT22;54464;50.558;9.704;2023-01-01T09:58:23;13.30;99.90
27162;DHT22;54464;50.558;9.704;2023-01-01T10:03:50;13.30;99.90
27162;DHT22;54464;50.558;9.704;2023-01-01T10:09:10;13.30;99.90
27162;DHT22;54464;50.558;9.704;2023-01-01T10:11:52;13.30;99.90
27162;DHT22;54464;50.558;9.704;2023-01-01T10:16:55;13.20;99.90
27162;DHT22;54464;50.558;9.704;2023-01-01T10:22:15;13.20;99.90
27162;DHT22;54464;50.558;9.704;2023-01-01T10:24:57;13.30;99.90
27162;DHT22;54464;50.558;9.704;2023-01-01T10:27:29;13.20;99.90
27162;DHT22;54464;50.558;9.704;2023-01-01T10:29:56;13.30;99.90
27162;DHT22;54464;50.558;9.704;2023-01-01T10:34:53;13.30;99.90
27162;DHT22;54464;50.558;9.704;2023-01-01T10:37:19;13.30;99.90
27162;DHT22;54464;50.558;9.704;2023-01-01T10:39:46;13.30;99.90
27162;DHT22;54464;50.558;9.704;2023-01-01T10:42:14;13.30;99.90
27162;DHT22;54464;50.558;9.704;2023-01-01T10:44:40;13.30;99.90
27162;DHT22;54464;50.558;9.704;2023-01-01T10:47:21;13.30;99.90
27162;DHT22;54464;50.558;9.704;2023-01-01T10:49:59;13.30;99.90
27162;DHT22;54464;50.558;9.704;2023-01-01T10:52:29;13.30;99.90
27162;DHT22;54464;50.558;9.704;2023-01-01T10:54:58;13.30;99.90
27162;DHT22;54464;50.558;9.704;2023-01-01T10:59:53;13.30;99.90
27162;DHT22;54464;50.558;9.704;2023-01-01T11:02:27;13.30;99.90
27162;DHT22;54464;50.558;9.704;2023-01-01T11:07:40;13.30;99.90
27162;DHT22;54464;50.558;9.704;2023-01-01T11:10:18;13.30;99.90
27162;DHT22;54464;50.558;9.704;2023-01-01T11:12:45;13.30;99.90
27162;DHT22;54464;50.558;9.704;2023-01-01T11:15:37;13.20;99.90
27162;DHT22;54464;50.558;9.704;2023-01-01T11:18:20;13.20;99.90
27162;DHT22;54464;50.558;9.704;2023-01-01T11:20:57;13.30;99.90
27162;DHT22;54464;50.558;9.704;2023-01-01T11:23:37;13.20;99.90
27162;DHT22;54464;50.558;9.704;2023-01-01T11:28:39;13.20;99.90
27162;DHT22;54464;50.558;9.704;2023-01-01T11:31:18;13.30;99.90
27162;DHT22;54464;50.558;9.704;2023-01-01T11:33:52;13.30;99.90
27162;DHT22;54464;50.558;9.704;2023-01-01T11:36:34;13.30;99.90
27162;DHT22;54464;50.558;9.704;2023-01-01T11:39:22;13.30;99.90
27162;DHT22;54464;50.558;9.704;2023-01-01T11:41:54;13.40;99.90
27162;DHT22;54464;50.558;9.704;2023-01-01T11:44:41;13.40;99.90
27162;DHT22;54464;50.558;9.704;2023-01-01T11:50:01;13.40;99.90
27162;DHT22;54464;50.558;9.704;2023-01-01T11:52:42;13.50;99.90
27162;DHT22;54464;50.558;9.704;2023-01-01T12:00:30;13.50;99.90
27162;DHT22;54464;50.558;9.704;2023-01-01T12:03:00;13.50;99.90
27162;DHT22;54464;50.558;9.704;2023-01-01T12:08:38;13.60;99.90
27162;DHT22;54464;50.558;9.704;2023-01-01T12:11:22;13.50;99.90
27162;DHT22;54464;50.558;9.704;2023-01-01T12:14:01;13.50;99.90
27162;DHT22;54464;50.558;9.704;2023-01-01T12:19:28;13.50;99.90
27162;DHT22;54464;50.558;9.704;2023-01-01T12:21:58;13.50;99.90
27162;DHT22;54464;50.558;9.704;2023-01-01T12:24:32;13.50;99.90
27162;DHT22;54464;50.558;9.704;2023-01-01T12:27:24;13.50;99.90
27162;DHT22;54464;50.558;9.704;2023-01-01T12:32:54;13.50;99.90
27162;DHT22;54464;50.558;9.704;2023-01-01T12:35:51;13.60;99.90
27162;DHT22;54464;50.558;9.704;2023-01-01T12:41:29;13.50;99.90
27162;DHT22;54464;50.558;9.704;2023-01-01T12:44:17;13.50;99.90
27162;DHT22;54464;50.558;9.704;2023-01-01T12:47:01;13.50;99.90
27162;DHT22;54464;50.558;9.704;2023-01-01T12:57:39;13.50;99.90
27162;DHT22;54464;50.558;9.704;2023-01-01T13:00:17;13.50;99.90
27162;DHT22;54464;50.558;9.704;2023-01-01T13:02:54;13.50;99.90
27162;DHT22;54464;50.558;9.704;2023-01-01T13:05:37;13.50;99.90
27162;DHT22;54464;50.558;9.704;2023-01-01T13:08:05;13.50;99.90
27162;DHT22;54464;50.558;9.704;2023-01-01T13:10:45;13.50;99.90
27162;DHT22;54464;50.558;9.704;2023-01-01T13:13:12;13.50;99.90
27162;DHT22;54464;50.558;9.704;2023-01-01T13:21:21;13.50;99.90
27162;DHT22;54464;50.558;9.704;2023-01-01T13:23:47;13.50;99.90
27162;DHT22;54464;50.558;9.704;2023-01-01T13:34:31;13.50;99.90
27162;DHT22;54464;50.558;9.704;2023-01-01T13:42:38;13.50;99.90
27162;DHT22;54464;50.558;9.704;2023-01-01T13:45:30;13.60;99.90
27162;DHT22;54464;50.558;9.704;2023-01-01T13:56:36;13.60;99.90
27162;DHT22;54464;50.558;9.704;2023-01-01T14:09:44;13.60;99.90
27162;DHT22;54464;50.558;9.704;2023-01-01T14:12:16;13.60;99.90
27162;DHT22;54464;50.558;9.704;2023-01-01T14:14:42;13.50;99.90
27162;DHT22;54464;50.558;9.704;2023-01-01T14:17:10;13.50;99.90
27162;DHT22;54464;50.558;9.704;2023-01-01T14:19:39;13.50;99.90
27162;DHT22;54464;50.558;9.704;2023-01-01T14:22:07;13.50;99.90
27162;DHT22;54464;50.558;9.704;2023-01-01T14:24:46;13.50;99.90
27162;DHT22;54464;50.558;9.704;2023-01-01T14:27:18;13.50;99.90
27162;DHT22;54464;50.558;9.704;2023-01-01T14:29:46;13.50;99.90
27162;DHT22;54464;50.558;9.704;2023-01-01T14:32:14;13.50;99.90
27162;DHT22;54464;50.558;9.704;2023-01-01T14:34:43;13.50;99.90
27162;DHT22;54464;50.558;9.704;2023-01-01T14:37:21;13.50;99.90
27162;DHT22;54464;50.558;9.704;2023-01-01T14:42:34;13.40;99.90
27162;DHT22;54464;50.558;9.704;2023-01-01T14:45:01;13.40;99.90
27162;DHT22;54464;50.558;9.704;2023-01-01T14:47:35;13.40;99.90
27162;DHT22;54464;50.558;9.704;2023-01-01T14:50:23;13.40;99.90
27162;DHT22;54464;50.558;9.704;2023-01-01T14:53:07;13.40;99.90
27162;DHT22;54464;50.558;9.704;2023-01-01T14:55:43;13.40;99.90
27162;DHT22;54464;50.558;9.704;2023-01-01T14:58:21;13.40;99.90
27162;DHT22;54464;50.558;9.704;2023-01-01T15:00:48;13.30;99.90
27162;DHT22;54464;50.558;9.704;2023-01-01T15:03:15;13.30;99.90
27162;DHT22;54464;50.558;9.704;2023-01-01T15:05:44;13.30;99.90
27162;DHT22;54464;50.558;9.704;2023-01-01T15:08:24;13.30;99.90
27162;DHT22;54464;50.558;9.704;2023-01-01T15:10:50;13.30;99.90
27162;DHT22;54464;50.558;9.704;2023-01-01T15:13:22;13.30;99.90
27162;DHT22;54464;50.558;9.704;2023-01-01T15:15:56;13.20;99.90
27162;DHT22;54464;50.558;9.704;2023-01-01T15:24:03;13.20;99.90
27162;DHT22;54464;50.558;9.704;2023-01-01T15:26:48;13.10;99.90
27162;DHT22;54464;50.558;9.704;2023-01-01T15:29:37;13.20;99.90
27162;DHT22;54464;50.558;9.704;2023-01-01T15:32:08;13.20;99.90
27162;DHT22;54464;50.558;9.704;2023-01-01T15:34:56;13.20;99.90
27162;DHT22;54464;50.558;9.704;2023-01-01T15:42:45;13.10;99.90
27162;DHT22;54464;50.558;9.704;2023-01-01T15:45:13;13.10;99.90
27162;DHT22;54464;50.558;9.704;2023-01-01T15:47:40;13.10;99.90
27162;DHT22;54464;50.558;9.704;2023-01-01T15:52:42;13.10;99.90
27162;DHT22;54464;50.558;9.704;2023-01-01T15:55:15;13.10;99.90
27162;DHT22;54464;50.558;9.704;2023-01-01T15:57:46;13.10;99.90
27162;DHT22;54464;50.558;9.704;2023-01-01T16:00:22;13.10;99.90
27162;DHT22;54464;50.558;9.704;2023-01-01T16:02:50;13.10;99.90
27162;DHT22;54464;50.558;9.704;2023-01-01T16:05:20;13.10;99.90
27162;DHT22;54464;50.558;9.704;2023-01-01T16:07:56;13.10;99.90
27162;DHT22;54464;50.558;9.704;2023-01-01T16:10:22;13.10;99.90
27162;DHT22;54464;50.558;9.704;2023-01-01T16:12:48;13.10;99.90
27162;DHT22;54464;50.558;9.704;2023-01-01T16:15:14;13.10;99.90
27162;DHT22;54464;50.558;9.704;2023-01-01T16:17:41;13.10;99.90
27162;DHT22;54464;50.558;9.704;2023-01-01T16:20:12;13.10;99.90
27162;DHT22;54464;50.558;9.704;2023-01-01T16:22:39;13.00;99.90
27162;DHT22;54464;50.558;9.704;2023-01-01T16:25:14;13.10;99.90
27162;DHT22;54464;50.558;9.704;2023-01-01T16:27:40;13.10;99.90
27162;DHT22;54464;50.558;9.704;2023-01-01T16:30:06;13.00;99.90
27162;DHT22;54464;50.558;9.704;2023-01-01T16:33:22;13.00;99.90
27162;DHT22;54464;50.558;9.704;2023-01-01T16:35:48;13.00;99.90
27162;DHT22;54464;50.558;9.704;2023-01-01T16:38:14;13.00;99.90
27162;DHT22;54464;50.558;9.704;2023-01-01T16:40:39;12.90;99.90
27162;DHT22;54464;50.558;9.704;2023-01-01T16:43:08;13.00;99.90
27162;DHT22;54464;50.558;9.704;2023-01-01T16:45:38;13.00;99.90
27162;DHT22;54464;50.558;9.704;2023-01-01T16:48:04;13.00;99.90
27162;DHT22;54464;50.558;9.704;2023-01-01T16:50:29;12.90;99.90
27162;DHT22;54464;50.558;9.704;2023-01-01T16:52:55;12.90;99.90
27162;DHT22;54464;50.558;9.704;2023-01-01T16:55:21;12.90;99.90
27162;DHT22;54464;50.558;9.704;2023-01-01T16:57:46;12.90;99.90
27162;DHT22;54464;50.558;9.704;2023-01-01T17:00:12;12.80;99.90
27162;DHT22;54464;50.558;9.704;2023-01-01T17:02:38;12.90;99.90
27162;DHT22;54464;50.558;9.704;2023-01-01T17:05:04;12.90;99.90
27162;DHT22;54464;50.558;9.704;2023-01-01T17:07:30;12.90;99.90
27162;DHT22;54464;50.558;9.704;2023-01-01T17:09:55;12.90;99.90
27162;DHT22;54464;50.558;9.704;2023-01-01T17:12:21;12.80;99.90
27162;DHT22;54464;50.558;9.704;2023-01-01T17:14:47;12.80;99.90
27162;DHT22;54464;50.558;9.704;2023-01-01T17:17:13;12.80;99.90
27162;DHT22;54464;50.558;9.704;2023-01-01T17:19:38;12.80;99.90
27162;DHT22;54464;50.558;9.704;2023-01-01T17:22:04;12.80;99.90
27162;DHT22;54464;50.558;9.704;2023-01-01T17:24:30;12.80;99.90
27162;DHT22;54464;50.558;9.704;2023-01-01T17:26:56;12.80;99.90
27162;DHT22;54464;50.558;9.704;2023-01-01T17:29:22;12.90;99.90
27162;DHT22;54464;50.558;9.704;2023-01-01T17:31:48;12.90;99.90
27162;DHT22;54464;50.558;9.704;2023-01-01T17:34:13;12.90;99.90
27162;DHT22;54464;50.558;9.704;2023-01-01T17:36:41;12.90;99.90
27162;DHT22;54464;50.558;9.704;2023-01-01T17:39:09;12.90;99.90
27162;DHT22;54464;50.558;9.704;2023-01-01T17:41:35;12.90;99.90
27162;DHT22;54464;50.558;9.704;2023-01-01T17:44:02;12.90;99.90
27162;DHT22;54464;50.558;9.704;2023-01-01T17:46:28;12.90;99.90
27162;DHT22;54464;50.558;9.704;2023-01-01T17:48:55;12.90;99.90
27162;DHT22;54464;50.558;9.704;2023-01-01T17:51:21;12.90;99.90
27162;DHT22;54464;50.558;9.704;2023-01-01T17:53:48;13.00;99.90
27162;DHT22;54464;50.558;9.704;2023-01-01T17:56:15;12.90;99.90
27162;DHT22;54464;50.558;9.704;2023-01-01T17:58:42;12.90;99.90
27162;DHT22;54464;50.558;9.704;2023-01-01T18:03:46;12.80;99.90
27162;DHT22;54464;50.558;9.704;2023-01-01T18:06:12;12.80;99.90
27162;DHT22;54464;50.558;9.704;2023-01-01T18:08:38;12.80;99.90